Portada
METAR-TAF:

METAR-TAF

Aeropuertos :

Aeropuerto Internacional de Maiquetía Simón Bolívar

Caracas, Venezuela

latitud: 10-36N, longitud: 066-59W, altitud: 43 m

Observación

El informe se hizo hace 27 minutos, a las 21:02 UTC
Viento 9 kt del este-noreste
Temperatura
Presión 1013 hPa

METAR: SVMI 132102Z AUTO 07009KT NCD ///// Q1013

Hora: 17:29 (21:29 UTC)

Pronóstico

El informe se hizo hace 5 horas y 29 minutos, a las 16:00 UTC
Pronóstico válido del 13 a las 18 UTC al 14 a las 18 UTC
Viento 6 kt del este
Visibilidad 10 km o más
Nubes dispersas a una altura de 1600 ft
Evolucionando progresivamente
del 13 a las 18 UTC al 13 a las 22 UTC
Viento 4 kt del este
Escasas nubes a una altura de 1600 ft
Nubes dispersas a una altura de 10000 ft

TAF: SVMI 131600Z 1318/1418 09006KT 9999 SCT016 TX34/18Z TN24/08Z BECMG 1318/1322 09004KT FEW016 SCT100

Observaciones y pronósticos meteorológicos de más de 4000 aeropuertos (mensajes METAR y TAF).

Los puntos amarillos y rojos representan las estaciones disponibles.

Ponga el ratón en el punto deseado para ver el nombre de la estación.

Haga clic para ver las observaciones y los pronósticos meteorológicos.

Para cambiar el mapa : haga clic en los botones verdes con una cruz de color negro para hacer un zoom, en el botón verde con un guión para alejar o en las flechas verdes para mapas adyacentes.


METAR-TAF: